Opportunities

To know the detailed description of a Notification, please click on the Notification Ref. link on each row. To know more details of the post such as Qualification required, Experience requirement, Scale of Pay, Max Age, etc. please click on button, which is shown against each post (on the right side of the table, beside 'Apply Now' button). Then proceed after reading the instructions.

Sl.No. Company Notification Date Notification Ref. Vac. Type Vac. ID Vacancy Name No of Vac. Appl. Fee Appl. Start Date Appl. End Date Status
 
1 KMRL 07 Feb 2018 KMRL/HR/20180201 Regular 204 AM (Alt. Revenue-Mktg) 1 ₹500/- 07 Feb 2018 12:00 am 21 Feb 2018 11:59 pm  
2 KMRL 07 Feb 2018 KMRL/HR/20180201 Regular 205 AM (Alt. Revenue-Fin) 1 ₹500/- 07 Feb 2018 12:00 am 21 Feb 2018 11:59 pm  
1 to 1 of 1 Records
Results per page
Sl.No. Company Notification Date Notification Ref. Vac. Type Vac. ID Vacancy Name No of Vacancies Appl. Start Date Appl. End Date
 
1 KMRL 05 Jan 2018 KMRL/HR/20180101 Contract 203 Horticulturist 1 05 Jan 2018 10:00 am 17 Jan 2018 11:59 pm      Under Process
2 KMRL 12 Dec 2017 KMRL/HR/20171202 Regular 199 DGM (Design) 1 12 Dec 2017 10:00 am 10 Jan 2018 11:59 pm      Under Process
3 KMRL 12 Dec 2017 KMRL/HR/20171202 Regular 200 MGR (Arch) 1 13 Dec 2017 10:00 am 10 Jan 2018 11:59 pm      Under Process
4 KMRL 12 Dec 2017 KMRL/HR/20171201 Contract 198 SDGM (Urban Transport) 1 12 Dec 2017 10:00 am 03 Jan 2018 11:59 pm      Under Process
5 KMRL 15 Dec 2017 KMRL/HR/20171203 Regular 201 MGR (Fin) 1 15 Dec 2017 12:00 am 03 Jan 2018 11:59 pm      Under Process
6 KMRL 06 Nov 2017 KMRL/HR/20171101 Contract 195 Director (FIN) 1 06 Nov 2017 12:01 am 29 Nov 2017 11:59 pm      Under Process
7 KMRL 07 Nov 2017 KMRL/HR/20171102 Regular 196 AM (Admin) 1 07 Nov 2017 10:00 am 29 Nov 2017 11:59 pm      Under Process
8 KMRL 10 Oct 2017 KMRL/HR/20171001 Regular 183 Dis. Person-Peon 2 11 Oct 2017 6:40 pm 31 Oct 2017 11:59 pm      Under Process
9 KMRL 10 Oct 2017 KMRL/HR/20171001 Regular 184 Dis. Person-Support Staff 2 11 Oct 2017 10:00 am 31 Oct 2017 11:59 pm      Under Process
10 KMRL 11 Oct 2017 KMRL/HR/20171002 Contract 187 Doc. Controller 1 12 Oct 2017 10:00 am 31 Oct 2017 11:59 pm      Under Process
1 to 10 of 27 Records
Results per page
Sl.No. Company Notification Date Notification Ref. Vac. Type Vac. ID Vacancy Name No of Vacancies Appl. Start Date Appl. End Date
  
1 KMRL 07 Nov 2017 KMRL/HR/20171102 Regular 197 AM (Legal) 1 07 Nov 2017 10:00 am 29 Nov 2017 11:59 pm      Selected
2 KMRL 11 Oct 2017 KMRL/HR/20171002 Contract 185 Jr. Architect 1 12 Oct 2017 10:00 am 31 Oct 2017 11:59 pm      Selected
3 KMRL 11 Oct 2017 KMRL/HR/20171002 Contract 188 Horticulturist 1 12 Oct 2017 10:00 am 31 Oct 2017 11:59 pm      None found suitable
4 KMRL 11 Oct 2017 KMRL/HR/20171002 Contract 186 AutoCAD Oper. 1 12 Oct 2017 10:00 am 31 Oct 2017 11:58 pm      Selected
5 KMRL 12 Apr 2017 KMRL/HR/20170402 Contract 174 JGM (Civil) 1 12 Apr 2017 10:00 am 30 Apr 2017 11:59 pm      Selected
6 KMWT 01 Apr 2017 KMRL/HR/20170401 Regular 173 DGM (Water Transport) 1 01 Apr 2017 10:00 am 17 Apr 2017 11:59 pm      Selected
7 KMRL 08 Feb 2017 KMRL/HR/20170202 Regular 171 GM (Water Transport) 1 08 Feb 2017 8:00 am 22 Feb 2017 11:59 pm      None found suitable
8 KMRL 10 Jan 2017 KMRL/HR/20170101 Regular 164 JGM (Power & Traction) 1 10 Jan 2017 11:45 pm 25 Jan 2017 11:59 pm      None found suitable
9 KMRL 10 Jan 2017 KMRL/HR/20170101 Regular 165 Legal Officer 1 10 Jan 2017 11:59 pm 25 Jan 2017 11:59 pm      Selected
10 KMRL 11 Jan 2017 KMRL/HR/20170101 Regular 168 DGM (Telecom) 1 11 Jan 2017 12:01 am 25 Jan 2017 11:59 pm      Selected
1 to 10 of 148 Records
Results per page